EDT,Max TemperatureF,Mean TemperatureF,Min TemperatureF,Max Dew PointF,MeanDew PointF,Min DewpointF,Max Humidity, Mean Humidity, Min Humidity, Max Sea Level PressureIn, Mean Sea Level PressureIn, Min Sea Level PressureIn, Max VisibilityMiles, Mean VisibilityMiles, Min VisibilityMiles, Max Wind SpeedMPH, Mean Wind SpeedMPH, Max Gust SpeedMPH,PrecipitationIn, CloudCover, Events, WindDirDegrees
2012-5-1,69,62,55,61,57,53,100,88,63,30.06,29.97,29.89,10,9,4,12,6,,0.12,6,Rain,279
2012-5-2,84,72,59,67,63,58,100,77,53,29.98,29.92,29.88,10,9,3,23,9,31,0.06,3,Rain,207
2012-5-3,88,76,64,66,63,61,90,66,43,30.02,29.96,29.89,10,10,10,22,10,32,0.00,1,,216
2012-5-4,81,71,62,68,64,59,94,80,61,29.96,29.92,29.87,10,10,5,16,8,,0.06,4,Rain-Thunderstorm,169
2012-5-5,69,62,55,61,56,44,100,83,62,30.05,29.98,29.91,10,6,1,18,11,23,0.00,6,,48
2012-5-6,73,62,50,45,40,31,77,49,29,30.08,30.02,29.96,10,10,10,14,8,,0.00,0,,54
2012-5-7,78,66,53,65,54,33,97,78,39,29.93,29.85,29.77,10,9,1,14,9,26,0.25,6,Rain-Thunderstorm,41
2012-5-8,72,64,54,63,56,46,100,83,49,29.84,29.80,29.75,10,7,2,13,6,16,0.05,6,Rain,285
2012-5-9,66,57,48,49,46,43,90,69,45,29.84,29.80,29.76,10,10,8,18,7,25,0.19,5,Rain-Thunderstorm,274
2012-5-10,64,54,43,45,37,31,90,57,29,30.02,29.92,29.83,10,10,10,13,6,21,0.00,0,,318
2012-5-11,72,57,42,40,37,34,79,48,26,30.17,30.13,30.02,10,10,10,10,5,16,0.00,0,,221
2012-5-12,75,62,50,45,42,37,66,47,29,30.24,30.19,30.14,10,10,10,12,7,18,0.00,0,,204
2012-5-13,75,65,55,53,49,44,77,59,34,30.17,30.12,30.07,10,10,10,14,4,,0.00,2,,74
2012-5-14,77,62,48,55,50,45,100,67,40,30.08,30.03,29.97,10,9,2,12,2,,0.00,1,,61
2012-5-15,82,64,46,53,42,35,90,49,19,29.99,29.94,29.86,10,10,10,14,4,21,0.00,0,,244
2012-5-16,70,61,51,53,39,33,70,43,28,30.10,29.96,29.85,10,10,10,15,10,23,0.00,1,,16
2012-5-17,69,57,45,39,35,30,74,47,25,30.19,30.14,30.11,10,10,10,16,6,22,0.00,0,,80
2012-5-18,81,64,46,46,37,33,59,40,18,30.15,30.09,30.03,10,10,10,9,5,,0.00,0,,90
2012-5-19,87,70,53,50,48,45,80,45,28,30.13,30.09,30.05,10,10,10,13,3,16,0.00,0,,135
2012-5-20,88,74,59,56,50,46,69,43,23,30.14,30.08,29.99,10,10,10,16,6,21,0.00,0,,146
2012-5-21,84,72,62,59,55,50,78,60,39,30.00,29.96,29.92,10,10,10,18,7,28,0.00,2,,327
2012-5-22,75,65,57,58,52,50,93,68,45,29.98,29.94,29.87,10,10,3,13,8,20,0.00,6,,31
2012-5-23,81,66,52,54,52,49,89,59,39,29.94,29.89,29.83,10,9,6,8,3,,0.00,0,,103
2012-5-24,88,74,61,61,57,54,87,57,36,29.92,29.85,29.78,10,10,6,20,7,28,0.00,1,,163
2012-5-25,91,81,71,64,59,50,66,49,34,30.06,29.93,29.86,10,10,10,18,13,24,0.00,2,,233
2012-5-26,88,78,68,60,53,49,59,44,32,30.18,30.11,30.05,10,10,10,20,9,23,0.00,1,,59
2012-5-27,93,80,66,67,60,52,71,52,33,30.10,30.00,29.92,10,10,10,14,9,21,0.00,1,,140
2012-5-28,97,83,70,67,62,55,81,52,25,29.94,29.85,29.76,10,10,9,20,10,30,0.00,0,,213
2012-5-29,82,73,66,67,63,50,94,72,35,29.88,29.79,29.72,10,8,2,21,12,26,0.92,4,Rain-Thunderstorm,236
2012-5-30,78,68,57,59,48,43,77,51,29,29.86,29.81,29.78,10,10,10,15,6,23,0.00,1,,304
2012-5-31,72,62,54,53,51,47,83,68,51,29.97,29.88,29.77,10,10,10,23,10,34,0.00,3,Rain,37